Time;durP1;ratioP1;P1;durP2;ratioP2;P2;SDS_P1;SDS_P2;PMS_P1;PMS_P2;Temp;Humidity;BMP_temperature;BMP_pressure;BME280_temperature;BME280_humidity;BME280_pressure;Samples;Min_cycle;Max_cycle;Signal;HPM_P1;HPM_P2
2020/12/18 00:00:08;;;;;;;16.42;13.35;;;6.20;83.90;;;;;;5060348;28;20460;-62
2020/12/18 00:02:34;;;;;;;17.52;13.90;;;6.20;83.80;;;;;;5058911;28;20068;-60
2020/12/18 00:05:00;;;;;;;18.90;14.32;;;6.20;83.70;;;;;;5040310;28;20041;-61
2020/12/18 00:07:26;;;;;;;17.58;13.98;;;6.20;83.60;;;;;;5037369;28;20041;-64
2020/12/18 00:09:52;;;;;;;19.58;13.43;;;6.30;83.50;;;;;;5046757;28;20484;-64
2020/12/18 00:12:19;;;;;;;18.35;15.02;;;6.30;83.20;;;;;;5037986;28;20044;-61
2020/12/18 00:14:44;;;;;;;17.77;13.90;;;6.30;83.00;;;;;;5054136;28;20052;-63
2020/12/18 00:17:10;;;;;;;17.73;13.48;;;6.10;83.70;;;;;;5038676;28;20037;-63
2020/12/18 00:19:36;;;;;;;18.08;14.20;;;6.10;83.60;;;;;;5047477;28;20440;-61
2020/12/18 00:22:01;;;;;;;18.02;13.60;;;6.10;83.60;;;;;;5052214;28;20423;-61
2020/12/18 00:24:27;;;;;;;18.60;14.35;;;6.10;83.60;;;;;;5040515;28;20113;-62
2020/12/18 00:26:53;;;;;;;18.10;14.80;;;6.10;83.50;;;;;;5051701;28;20069;-61
2020/12/18 00:29:19;;;;;;;18.05;14.43;;;6.00;83.60;;;;;;5050048;28;20034;-63
2020/12/18 00:31:44;;;;;;;18.30;14.63;;;6.00;83.70;;;;;;5049084;28;20025;-61
2020/12/18 00:34:10;;;;;;;15.98;13.00;;;6.00;83.60;;;;;;5042155;28;20041;-61
2020/12/18 00:36:36;;;;;;;18.67;14.55;;;6.00;83.40;;;;;;5049320;28;20033;-63
2020/12/18 00:39:04;;;;;;;17.38;14.18;;;6.00;83.70;;;;;;5034340;28;20095;-63
2020/12/18 00:41:29;;;;;;;17.08;13.93;;;6.00;83.70;;;;;;5027093;28;20400;-61
2020/12/18 00:43:55;;;;;;;18.17;13.63;;;6.00;83.80;;;;;;5044807;28;20095;-62
2020/12/18 00:46:21;;;;;;;20.30;13.82;;;5.90;83.70;;;;;;5049575;28;20040;-62
2020/12/18 00:48:47;;;;;;;15.63;13.02;;;5.90;83.70;;;;;;5067522;28;20424;-62
2020/12/18 00:51:19;;;;;;;16.00;12.98;;;5.80;84.00;;;;;;5054216;28;20075;-63
2020/12/18 00:53:45;;;;;;;17.92;13.27;;;5.90;84.10;;;;;;5046452;28;20044;-61
2020/12/18 00:56:11;;;;;;;18.15;13.10;;;5.80;84.10;;;;;;5045563;28;20036;-62
2020/12/18 00:58:37;;;;;;;17.92;13.00;;;5.90;84.00;;;;;;5053673;28;20041;-63
2020/12/18 01:01:06;;;;;;;18.73;13.10;;;5.80;86.00;;;;;;5053002;28;20696;-62
2020/12/18 01:03:32;;;;;;;14.10;12.40;;;6.30;86.00;;;;;;5052950;28;20033;-63
2020/12/18 01:05:57;;;;;;;16.40;13.32;;;6.50;84.60;;;;;;5053458;28;20036;-63
2020/12/18 01:08:23;;;;;;;15.23;12.35;;;6.70;82.60;;;;;;5053522;28;20041;-64
2020/12/18 01:10:49;;;;;;;13.80;11.70;;;6.80;82.90;;;;;;5054968;28;20029;-64
2020/12/18 01:13:14;;;;;;;15.32;11.98;;;7.00;82.20;;;;;;5053171;28;20127;-64
2020/12/18 01:15:40;;;;;;;16.85;12.55;;;7.10;81.40;;;;;;5052847;28;20415;-61
2020/12/18 01:18:05;;;;;;;16.27;12.32;;;7.10;80.60;;;;;;5052665;28;20051;-60
2020/12/18 01:20:31;;;;;;;15.00;11.23;;;7.20;80.10;;;;;;5047669;28;20037;-60
2020/12/18 01:22:57;;;;;;;14.98;12.00;;;7.20;80.10;;;;;;5043817;28;20045;-63
2020/12/18 01:25:22;;;;;;;14.68;12.30;;;7.10;79.20;;;;;;5050236;28;20120;-60
2020/12/18 01:27:48;;;;;;;14.50;11.98;;;7.20;79.50;;;;;;5051137;28;20076;-59
2020/12/18 01:30:13;;;;;;;15.50;12.93;;;7.10;79.80;;;;;;5050763;28;20029;-59
2020/12/18 01:32:39;;;;;;;16.48;11.55;;;7.00;79.90;;;;;;5051412;28;20044;-64
2020/12/18 01:35:04;;;;;;;16.50;12.80;;;6.70;79.50;;;;;;5050729;28;20033;-58
2020/12/18 01:37:30;;;;;;;19.50;13.05;;;6.50;80.30;;;;;;5033004;28;20676;-57
2020/12/18 01:39:56;;;;;;;14.32;12.07;;;6.20;81.60;;;;;;5046379;28;20072;-57
2020/12/18 01:42:21;;;;;;;15.90;12.10;;;6.00;82.30;;;;;;5040408;28;20496;-59
2020/12/18 01:44:48;;;;;;;15.13;12.50;;;6.00;82.40;;;;;;5042465;28;20729;-58
2020/12/18 01:47:32;;;;;;;15.90;13.00;;;5.90;82.80;;;;;;5040879;28;20022;-60
2020/12/18 01:49:58;;;;;;;17.05;13.65;;;5.80;83.10;;;;;;5050671;28;20067;-60
2020/12/18 01:52:25;;;;;;;15.77;13.05;;;5.60;83.80;;;;;;5042813;28;20048;-59
2020/12/18 01:55:01;;;;;;;15.38;12.75;;;5.50;84.30;;;;;;5047823;28;20784;-60
2020/12/18 01:57:27;;;;;;;16.30;13.48;;;5.40;84.60;;;;;;5043729;28;20496;-59
2020/12/18 01:59:53;;;;;;;16.40;13.77;;;5.40;84.40;;;;;;5042927;28;20069;-58
2020/12/18 02:02:19;;;;;;;19.73;14.05;;;5.30;84.90;;;;;;5044536;28;20118;-59
2020/12/18 02:04:47;;;;;;;16.23;12.73;;;5.10;86.30;;;;;;5042625;28;20510;-58
2020/12/18 02:07:13;;;;;;;18.05;12.55;;;5.10;85.70;;;;;;5042715;28;20488;-56
2020/12/18 02:09:39;;;;;;;18.88;13.52;;;5.10;85.40;;;;;;5045369;28;20079;-57
2020/12/18 02:12:06;;;;;;;16.10;12.52;;;5.10;85.60;;;;;;5041748;28;20057;-57
2020/12/18 02:14:31;;;;;;;16.65;14.13;;;5.10;85.40;;;;;;5041840;28;20032;-57
2020/12/18 02:16:57;;;;;;;19.52;13.68;;;5.00;85.80;;;;;;5053447;28;20033;-57
2020/12/18 02:19:30;;;;;;;19.35;13.95;;;5.00;85.90;;;;;;5034376;28;20140;-57
2020/12/18 02:21:55;;;;;;;18.13;13.52;;;5.00;85.80;;;;;;5047993;28;20028;-57
2020/12/18 02:24:25;;;;;;;17.77;12.93;;;5.00;85.50;;;;;;5048395;28;20098;-57
2020/12/18 02:26:52;;;;;;;20.38;14.25;;;5.10;85.50;;;;;;5049236;28;20037;-60
2020/12/18 02:29:18;;;;;;;15.88;12.68;;;5.00;85.30;;;;;;5050242;28;20033;-57
2020/12/18 02:31:43;;;;;;;16.30;13.00;;;5.00;85.50;;;;;;5051616;28;20017;-57
2020/12/18 02:34:09;;;;;;;16.48;12.90;;;5.00;85.40;;;;;;5051205;28;20055;-58
2020/12/18 02:36:34;;;;;;;17.13;12.65;;;4.90;85.70;;;;;;5051741;28;20052;-58
2020/12/18 02:39:00;;;;;;;17.77;12.93;;;4.90;85.80;;;;;;5062626;28;20040;-57
2020/12/18 02:41:26;;;;;;;17.30;12.85;;;5.10;85.00;;;;;;5033696;28;20480;-58
2020/12/18 02:43:52;;;;;;;18.27;13.07;;;5.00;85.20;;;;;;5066287;28;20180;-58
2020/12/18 02:46:18;;;;;;;15.27;12.65;;;5.00;85.40;;;;;;5071781;28;20131;-57
2020/12/18 02:48:45;;;;;;;18.40;13.60;;;5.10;85.10;;;;;;5067166;28;20036;-56
2020/12/18 02:51:10;;;;;;;18.40;13.02;;;5.00;84.90;;;;;;5060205;28;20033;-58
2020/12/18 02:53:36;;;;;;;18.83;12.90;;;5.00;85.00;;;;;;5051526;28;20503;-58
2020/12/18 02:56:01;;;;;;;17.35;12.90;;;5.00;85.20;;;;;;5051314;28;20037;-58
2020/12/18 02:58:27;;;;;;;16.85;13.35;;;4.90;85.60;;;;;;5055477;28;20045;-59
2020/12/18 03:00:53;;;;;;;16.85;12.70;;;5.00;85.50;;;;;;5037880;28;20083;-58
2020/12/18 03:03:18;;;;;;;17.63;12.95;;;4.90;85.70;;;;;;5055948;28;20025;-59
2020/12/18 03:05:44;;;;;;;15.95;12.95;;;5.00;85.20;;;;;;5055145;28;20037;-58
2020/12/18 03:08:09;;;;;;;16.45;12.68;;;5.00;85.10;;;;;;5055566;28;20033;-58
2020/12/18 03:10:35;;;;;;;16.13;12.95;;;5.20;84.50;;;;;;5055251;28;20527;-57
2020/12/18 03:13:00;;;;;;;15.18;12.18;;;5.20;84.10;;;;;;5054698;28;20033;-58
2020/12/18 03:15:26;;;;;;;14.75;11.80;;;5.20;84.20;;;;;;5055096;28;20108;-58
2020/12/18 03:17:52;;;;;;;15.30;11.93;;;5.20;84.20;;;;;;5037498;28;20045;-58
2020/12/18 03:20:17;;;;;;;17.63;12.45;;;5.20;84.10;;;;;;5054487;28;20048;-58
2020/12/18 03:22:43;;;;;;;16.83;13.30;;;5.20;84.60;;;;;;5055067;28;20489;-57
2020/12/18 03:25:08;;;;;;;16.67;11.68;;;5.30;84.30;;;;;;5053474;28;20037;-57
2020/12/18 03:27:34;;;;;;;16.42;12.75;;;5.20;84.50;;;;;;5053934;28;20087;-58
2020/12/18 03:29:59;;;;;;;18.40;14.43;;;5.10;85.00;;;;;;5054866;28;20082;-57
2020/12/18 03:32:28;;;;;;;14.88;11.82;;;5.00;85.90;;;;;;5054507;28;20059;-56
2020/12/18 03:34:59;;;;;;;15.87;12.37;;;5.00;85.90;;;;;;5054468;28;20029;-59
2020/12/18 03:37:25;;;;;;;15.70;12.13;;;5.00;85.90;;;;;;5055053;28;20290;-61
2020/12/18 03:39:50;;;;;;;16.17;12.73;;;4.90;85.90;;;;;;5054937;28;20491;-59
2020/12/18 03:42:16;;;;;;;17.52;12.77;;;5.00;85.80;;;;;;5054901;28;20205;-56
2020/12/18 03:44:42;;;;;;;18.90;12.65;;;5.00;85.30;;;;;;5055521;28;20033;-58
2020/12/18 03:47:07;;;;;;;17.67;12.93;;;5.00;85.40;;;;;;5058707;28;20053;-57
2020/12/18 03:49:33;;;;;;;19.65;13.60;;;5.00;85.20;;;;;;5074442;28;20403;-60
2020/12/18 03:51:58;;;;;;;16.98;13.23;;;5.00;85.20;;;;;;5073439;28;20410;-57
2020/12/18 03:54:24;;;;;;;16.20;12.63;;;5.10;85.00;;;;;;5055077;28;20128;-57
2020/12/18 03:56:49;;;;;;;17.92;13.07;;;5.10;84.50;;;;;;5054640;28;20033;-58
2020/12/18 03:59:15;;;;;;;16.23;13.13;;;5.10;84.30;;;;;;5036538;28;20045;-57
2020/12/18 04:01:40;;;;;;;18.58;13.23;;;5.10;84.20;;;;;;5054418;28;20124;-58
2020/12/18 04:04:06;;;;;;;18.80;12.32;;;5.20;84.20;;;;;;5054533;28;20087;-58
2020/12/18 04:06:31;;;;;;;16.30;12.32;;;5.00;84.50;;;;;;5054152;28;20399;-58
2020/12/18 04:08:57;;;;;;;18.23;12.93;;;5.00;84.80;;;;;;5052995;28;20029;-59
2020/12/18 04:11:22;;;;;;;18.25;13.23;;;5.00;85.00;;;;;;5054365;28;20443;-58
2020/12/18 04:13:48;;;;;;;18.80;13.27;;;5.00;85.20;;;;;;5054272;28;20523;-57
2020/12/18 04:16:14;;;;;;;17.67;13.23;;;5.10;84.60;;;;;;5054620;28;20053;-59
2020/12/18 04:18:40;;;;;;;19.02;13.48;;;5.00;85.10;;;;;;5036310;28;20051;-56
2020/12/18 04:21:06;;;;;;;15.93;12.02;;;5.00;84.90;;;;;;5054035;28;20040;-58
2020/12/18 04:23:31;;;;;;;16.17;12.30;;;5.00;85.00;;;;;;5036461;28;20087;-58
2020/12/18 04:25:57;;;;;;;16.75;13.40;;;5.00;85.00;;;;;;5054121;28;20123;-59
2020/12/18 04:28:22;;;;;;;18.33;13.65;;;5.00;85.10;;;;;;5054211;28;20029;-58
2020/12/18 04:30:50;;;;;;;15.68;12.27;;;5.00;85.00;;;;;;5034452;28;20037;-57
2020/12/18 04:33:15;;;;;;;21.33;12.93;;;5.10;85.00;;;;;;5049953;28;20043;-57
2020/12/18 04:35:41;;;;;;;16.98;13.10;;;5.10;85.60;;;;;;5053883;28;20033;-58
2020/12/18 04:38:12;;;;;;;16.25;12.73;;;5.10;84.70;;;;;;5053414;28;20033;-58
2020/12/18 04:40:39;;;;;;;15.57;11.68;;;5.20;84.80;;;;;;5053983;28;20120;-57
2020/12/18 04:43:05;;;;;;;16.88;12.88;;;5.30;84.20;;;;;;5035913;28;20041;-57
2020/12/18 04:45:31;;;;;;;17.35;13.35;;;5.20;84.60;;;;;;5053702;28;20503;-57
2020/12/18 04:47:59;;;;;;;16.00;12.57;;;5.30;84.40;;;;;;5053291;28;20112;-58
2020/12/18 04:50:25;;;;;;;17.42;12.20;;;5.20;84.80;;;;;;5053896;28;20033;-58
2020/12/18 04:52:56;;;;;;;17.27;12.43;;;5.30;84.40;;;;;;5053047;28;20079;-57
2020/12/18 04:55:27;;;;;;;18.65;12.77;;;5.30;84.40;;;;;;5054504;28;20046;-59
2020/12/18 04:57:53;;;;;;;17.80;12.65;;;5.30;84.30;;;;;;5054044;28;20025;-59
2020/12/18 05:00:20;;;;;;;25.05;13.73;;;5.30;84.10;;;;;;5053732;28;20033;-57
2020/12/18 05:02:47;;;;;;;17.35;12.73;;;5.40;84.00;;;;;;5053706;28;20037;-58
2020/12/18 05:05:12;;;;;;;16.35;12.52;;;5.40;83.90;;;;;;5053724;28;20032;-59
2020/12/18 05:07:38;;;;;;;23.75;12.95;;;5.30;84.00;;;;;;5053234;28;20397;-54
2020/12/18 05:10:07;;;;;;;19.33;13.23;;;5.30;84.30;;;;;;5053665;28;20115;-57
2020/12/18 05:12:34;;;;;;;19.58;13.05;;;5.20;84.80;;;;;;5032617;28;20411;-59
2020/12/18 05:15:00;;;;;;;17.20;12.93;;;5.30;84.70;;;;;;5052888;28;20033;-59
2020/12/18 05:17:27;;;;;;;18.10;12.93;;;5.20;85.10;;;;;;5053070;28;20507;-58
2020/12/18 05:19:52;;;;;;;17.98;12.80;;;5.20;84.60;;;;;;5052615;28;20037;-60
2020/12/18 05:22:24;;;;;;;20.63;12.55;;;5.20;84.70;;;;;;5053585;28;20025;-58
2020/12/18 05:24:51;;;;;;;18.42;13.15;;;5.20;84.90;;;;;;5053530;28;20055;-58
2020/12/18 05:27:18;;;;;;;17.73;12.85;;;5.20;84.60;;;;;;5053623;28;20052;-55
2020/12/18 05:29:44;;;;;;;16.15;12.40;;;5.30;84.60;;;;;;5053635;28;20048;-58
2020/12/18 05:32:12;;;;;;;17.75;12.05;;;5.30;84.60;;;;;;5053187;28;20037;-58
2020/12/18 05:34:39;;;;;;;17.98;13.13;;;5.30;84.40;;;;;;5053261;28;20387;-57
2020/12/18 05:37:05;;;;;;;15.90;11.55;;;5.30;84.50;;;;;;5052782;28;20765;-57
2020/12/18 05:39:33;;;;;;;15.73;12.50;;;5.40;84.40;;;;;;5052896;28;20113;-59
2020/12/18 05:42:03;;;;;;;16.50;12.73;;;5.40;84.50;;;;;;5052378;28;20041;-58
2020/12/18 05:44:31;;;;;;;17.15;13.38;;;5.40;84.40;;;;;;5034920;28;20029;-59
2020/12/18 05:47:07;;;;;;;18.73;13.07;;;5.40;84.50;;;;;;5052238;28;20083;-58
2020/12/18 05:49:35;;;;;;;19.52;13.57;;;5.30;84.40;;;;;;5072315;28;20642;-59
2020/12/18 05:52:02;;;;;;;16.27;12.63;;;5.30;84.80;;;;;;5071095;28;20033;-58
2020/12/18 05:54:35;;;;;;;18.75;14.10;;;5.20;85.10;;;;;;5052762;28;20361;-59
2020/12/18 05:57:10;;;;;;;18.30;13.25;;;5.20;85.20;;;;;;5052465;28;20060;-56
2020/12/18 05:59:39;;;;;;;;;;;5.30;85.30;;;;;;5053796;28;20463;-58
2020/12/18 06:02:13;;;;;;;19.95;13.05;;;5.30;84.90;;;;;;5052777;28;19992;-59
2020/12/18 06:04:39;;;;;;;17.67;13.47;;;5.30;84.60;;;;;;5035392;28;20120;-59
2020/12/18 06:07:06;;;;;;;18.20;13.07;;;5.30;84.90;;;;;;5052785;28;20715;-60
2020/12/18 06:09:33;;;;;;;16.80;12.05;;;5.50;84.60;;;;;;5052178;28;20048;-60
2020/12/18 06:12:05;;;;;;;16.98;13.25;;;5.60;84.20;;;;;;5052280;28;20028;-61
2020/12/18 06:14:31;;;;;;;18.30;12.73;;;5.60;83.90;;;;;;5052581;28;20111;-60
2020/12/18 06:17:11;;;;;;;18.17;14.00;;;5.70;83.70;;;;;;5052364;28;20044;-60
2020/12/18 06:19:38;;;;;;;16.88;12.65;;;5.70;83.50;;;;;;5051947;28;20033;-58
2020/12/18 06:22:10;;;;;;;14.57;11.10;;;5.70;83.50;;;;;;5051423;28;20464;-58
2020/12/18 06:24:39;;;;;;;18.05;12.90;;;5.80;83.00;;;;;;5051529;28;20522;-59
2020/12/18 06:27:07;;;;;;;22.58;17.15;;;5.80;82.40;;;;;;5051555;28;20123;-60
2020/12/18 06:29:33;;;;;;;21.38;16.48;;;5.70;82.70;;;;;;5051806;28;20020;-60
2020/12/18 06:32:19;;;;;;;19.33;13.90;;;5.70;83.00;;;;;;5050572;28;20029;-60
2020/12/18 06:34:44;;;;;;;15.05;12.07;;;5.80;82.90;;;;;;5051014;28;20056;-58
2020/12/18 06:37:23;;;;;;;17.90;11.82;;;5.80;82.80;;;;;;5051665;28;20033;-60
2020/12/18 06:39:49;;;;;;;14.48;11.70;;;5.90;82.70;;;;;;5052040;28;20108;-59
2020/12/18 06:42:26;;;;;;;18.65;14.27;;;5.90;82.80;;;;;;5052292;28;20068;-59
2020/12/18 06:44:54;;;;;;;19.25;13.77;;;5.90;82.80;;;;;;5051613;28;20037;-56
2020/12/18 06:47:26;;;;;;;17.52;14.15;;;5.90;82.90;;;;;;5034481;28;20040;-59
2020/12/18 06:49:58;;;;;;;17.65;12.85;;;5.80;83.00;;;;;;5070160;28;20032;-59
2020/12/18 06:52:43;;;;;;;16.48;12.50;;;5.80;83.30;;;;;;5039971;28;20136;-60
2020/12/18 06:55:09;;;;;;;17.13;12.77;;;5.80;83.30;;;;;;5051258;28;20031;-61
2020/12/18 06:57:35;;;;;;;18.08;12.95;;;5.80;83.40;;;;;;5051563;28;20029;-61
2020/12/18 07:00:26;;;;;;;16.33;12.27;;;5.80;83.60;;;;;;5051276;28;20573;-60
2020/12/18 07:02:52;;;;;;;14.27;11.50;;;5.90;83.70;;;;;;5051772;28;20025;-61
2020/12/18 07:05:47;;;;;;;18.00;12.27;;;5.90;83.30;;;;;;5052870;28;20040;-61
2020/12/18 07:08:15;;;;;;;16.85;12.23;;;5.90;83.80;;;;;;5040777;28;20076;-60
2020/12/18 07:10:42;;;;;;;14.98;11.80;;;5.90;83.60;;;;;;5053375;28;20102;-60
2020/12/18 07:13:12;;;;;;;15.00;11.48;;;5.90;83.60;;;;;;5054614;28;20115;-61
2020/12/18 07:15:44;;;;;;;18.20;11.82;;;6.00;83.60;;;;;;5053064;28;20387;-61
2020/12/18 07:18:30;;;;;;;15.15;11.20;;;6.00;83.70;;;;;;5054408;28;20466;-60
2020/12/18 07:21:09;;;;;;;19.92;12.52;;;6.00;83.70;;;;;;5036165;28;20037;-60
2020/12/18 07:23:40;;;;;;;15.60;11.73;;;6.00;84.40;;;;;;5052819;28;20556;-61
2020/12/18 07:26:07;;;;;;;15.23;11.52;;;5.90;84.30;;;;;;5033548;28;20033;-61
2020/12/18 07:28:37;;;;;;;25.38;16.38;;;5.90;84.40;;;;;;5051765;28;20090;-61
2020/12/18 07:31:05;;;;;;;26.85;17.92;;;6.00;84.20;;;;;;5051016;28;20025;-60
2020/12/18 07:33:31;;;;;;;20.23;13.73;;;6.00;84.20;;;;;;5051165;28;20064;-61
2020/12/18 07:35:57;;;;;;;16.05;11.82;;;6.10;83.80;;;;;;5050516;28;20514;-60
2020/12/18 07:38:28;;;;;;;16.75;12.50;;;6.10;83.80;;;;;;5050955;28;20033;-60
2020/12/18 07:41:08;;;;;;;15.93;12.77;;;6.00;84.20;;;;;;5051050;28;20037;-61
2020/12/18 07:43:35;;;;;;;23.00;13.82;;;6.00;84.10;;;;;;5053496;28;20094;-60
2020/12/18 07:46:09;;;;;;;17.58;12.32;;;6.00;84.30;;;;;;5054223;28;20368;-61
2020/12/18 07:48:36;;;;;;;20.02;13.07;;;6.00;84.30;;;;;;5066078;28;20041;-60
2020/12/18 07:51:09;;;;;;;19.27;14.13;;;6.00;84.30;;;;;;5056018;28;20082;-60
2020/12/18 07:53:37;;;;;;;16.77;12.80;;;6.10;84.00;;;;;;5054420;28;20522;-60
2020/12/18 07:56:07;;;;;;;17.80;12.32;;;6.10;84.10;;;;;;5054307;28;20539;-60
2020/12/18 07:58:45;;;;;;;19.35;12.57;;;6.00;84.40;;;;;;5054443;28;20037;-61
2020/12/18 08:01:17;;;;;;;20.33;14.27;;;6.10;84.30;;;;;;5053898;28;20051;-61
2020/12/18 08:03:47;;;;;;;20.70;14.20;;;6.10;84.30;;;;;;5053964;28;20558;-61
2020/12/18 08:06:18;;;;;;;18.05;13.32;;;6.10;83.80;;;;;;5053908;28;20033;-60
2020/12/18 08:08:56;;;;;;;18.58;12.73;;;6.10;84.20;;;;;;5054004;28;20033;-57
2020/12/18 08:11:23;;;;;;;16.88;13.02;;;6.30;83.90;;;;;;5053782;28;20111;-57
2020/12/18 08:13:49;;;;;;;18.75;13.40;;;6.30;83.20;;;;;;5053921;28;20033;-58
2020/12/18 08:16:21;;;;;;;15.20;12.00;;;6.50;83.10;;;;;;5053895;28;20035;-60
2020/12/18 08:18:50;;;;;;;18.45;13.05;;;6.40;83.10;;;;;;5053704;28;20033;-61
2020/12/18 08:21:20;;;;;;;18.40;12.93;;;6.40;83.10;;;;;;5053513;28;20049;-61
2020/12/18 08:23:50;;;;;;;17.63;13.23;;;6.40;82.90;;;;;;5051668;28;20033;-59
2020/12/18 08:26:16;;;;;;;17.92;13.43;;;6.50;82.80;;;;;;5053396;28;20033;-59
2020/12/18 08:28:43;;;;;;;21.92;14.23;;;6.40;83.00;;;;;;5053826;28;20123;-60
2020/12/18 08:31:09;;;;;;;22.63;16.40;;;6.50;82.90;;;;;;5053350;28;20519;-61
2020/12/18 08:33:45;;;;;;;23.33;15.80;;;6.50;82.70;;;;;;5052770;28;20045;-60
2020/12/18 08:36:13;;;;;;;24.73;16.83;;;6.50;82.90;;;;;;5053425;28;20433;-61
2020/12/18 08:38:38;;;;;;;21.33;15.60;;;6.60;82.70;;;;;;5052971;28;20037;-61
2020/12/18 08:41:04;;;;;;;19.50;14.65;;;6.50;82.80;;;;;;5051542;28;20569;-61
2020/12/18 08:43:29;;;;;;;21.70;14.38;;;6.60;82.90;;;;;;5053322;28;20488;-58
2020/12/18 08:45:56;;;;;;;21.45;14.18;;;6.60;82.80;;;;;;5052337;28;20041;-59
2020/12/18 08:48:26;;;;;;;22.85;15.07;;;6.60;82.60;;;;;;5061762;28;20036;-59
2020/12/18 08:50:59;;;;;;;19.67;13.45;;;6.60;82.70;;;;;;5052982;28;20021;-59
2020/12/18 08:53:32;;;;;;;19.13;15.30;;;6.60;82.90;;;;;;5051946;28;20114;-56
2020/12/18 08:56:06;;;;;;;20.90;13.90;;;6.60;83.20;;;;;;5051913;28;20170;-60
2020/12/18 08:58:33;;;;;;;18.60;14.05;;;6.70;83.50;;;;;;5052973;28;20028;-61
2020/12/18 09:01:02;;;;;;;19.02;13.93;;;6.60;83.20;;;;;;5053362;28;20063;-60
2020/12/18 09:03:40;;;;;;;19.38;14.45;;;6.60;83.30;;;;;;5052917;28;20063;-60
2020/12/18 09:06:12;;;;;;;23.88;15.52;;;6.60;83.60;;;;;;5034952;28;20044;-59
2020/12/18 09:08:38;;;;;;;21.58;16.52;;;6.60;83.40;;;;;;5052955;28;20036;-57
2020/12/18 09:11:03;;;;;;;20.13;16.20;;;6.60;83.40;;;;;;5053130;28;20041;-60
2020/12/18 09:13:30;;;;;;;19.52;14.68;;;6.70;83.10;;;;;;5034771;28;20439;-59
2020/12/18 09:16:02;;;;;;;21.70;16.27;;;6.80;82.80;;;;;;5052314;28;20117;-60
2020/12/18 09:18:30;;;;;;;22.55;15.13;;;6.90;82.70;;;;;;5052835;28;20044;-57
2020/12/18 09:21:06;;;;;;;21.10;14.70;;;6.90;82.80;;;;;;5052005;28;20817;-58
2020/12/18 09:23:32;;;;;;;20.88;16.10;;;6.90;83.00;;;;;;5051699;28;20094;-59
2020/12/18 09:26:01;;;;;;;20.98;16.90;;;7.00;82.80;;;;;;5052813;28;20136;-58
2020/12/18 09:28:33;;;;;;;26.58;19.88;;;7.10;82.80;;;;;;5052519;28;20083;-58
2020/12/18 09:30:58;;;;;;;19.30;14.60;;;7.10;82.50;;;;;;5033798;28;20029;-59
2020/12/18 09:33:26;;;;;;;20.52;15.20;;;7.10;82.60;;;;;;5051907;28;20556;-59
2020/12/18 09:35:53;;;;;;;19.20;14.15;;;7.20;82.30;;;;;;5051128;28;20364;-58
2020/12/18 09:38:24;;;;;;;18.10;14.45;;;7.30;82.20;;;;;;5052107;28;20044;-60
2020/12/18 09:40:51;;;;;;;21.23;15.38;;;7.40;81.50;;;;;;5052597;28;20496;-59
2020/12/18 09:43:16;;;;;;;17.08;14.10;;;7.50;81.30;;;;;;5052351;28;20037;-58
2020/12/18 09:45:42;;;;;;;20.38;14.65;;;7.60;81.20;;;;;;5051273;28;20045;-61
2020/12/18 09:48:08;;;;;;;18.23;14.35;;;7.60;81.10;;;;;;5024595;28;20032;-59
2020/12/18 09:50:34;;;;;;;20.92;15.60;;;7.70;80.90;;;;;;5071829;28;20045;-60
2020/12/18 09:53:00;;;;;;;24.55;16.65;;;7.80;80.40;;;;;;5056257;28;20025;-59
2020/12/18 09:55:28;;;;;;;25.35;15.52;;;7.70;80.70;;;;;;5053237;28;20033;-60
2020/12/18 09:57:53;;;;;;;18.95;14.00;;;7.70;81.00;;;;;;5053497;28;20060;-59
2020/12/18 10:00:19;;;;;;;19.20;14.82;;;7.70;80.80;;;;;;5054079;28;20103;-59
2020/12/18 10:02:45;;;;;;;20.23;15.93;;;7.80;81.00;;;;;;5065554;28;20021;-61
2020/12/18 10:05:10;;;;;;;20.48;14.77;;;7.80;80.60;;;;;;5067107;28;20447;-58
2020/12/18 10:07:36;;;;;;;20.08;13.82;;;8.00;80.20;;;;;;5049872;28;20025;-60
2020/12/18 10:10:02;;;;;;;21.77;14.88;;;8.00;80.20;;;;;;5068483;28;20056;-60
2020/12/18 10:12:28;;;;;;;18.38;13.63;;;8.00;80.40;;;;;;5068165;28;20080;-61
2020/12/18 10:14:56;;;;;;;16.17;12.52;;;8.20;80.10;;;;;;5057674;28;20041;-59
2020/12/18 10:17:22;;;;;;;16.38;12.57;;;8.30;79.30;;;;;;5054526;28;20037;-59
2020/12/18 10:19:48;;;;;;;16.27;12.48;;;8.40;79.40;;;;;;5052332;28;20044;-60
2020/12/18 10:22:14;;;;;;;18.35;11.15;;;8.40;79.00;;;;;;5052570;28;20136;-60
2020/12/18 10:24:40;;;;;;;14.73;11.15;;;8.60;77.90;;;;;;5018150;28;20104;-60
2020/12/18 10:27:06;;;;;;;14.63;9.63;;;8.70;77.40;;;;;;5051949;28;20120;-60
2020/12/18 10:29:31;;;;;;;14.02;9.30;;;8.70;76.40;;;;;;5051998;28;20718;-60
2020/12/18 10:31:58;;;;;;;13.55;9.48;;;8.70;75.70;;;;;;5034511;28;20075;-61
2020/12/18 10:34:25;;;;;;;14.77;9.18;;;8.70;75.70;;;;;;5034442;28;20086;-59
2020/12/18 10:36:53;;;;;;;12.63;9.23;;;8.70;75.40;;;;;;5053172;28;20028;-61
2020/12/18 10:39:19;;;;;;;15.88;10.13;;;8.70;75.50;;;;;;5052529;28;20041;-61
2020/12/18 10:41:47;;;;;;;11.68;9.70;;;8.90;74.70;;;;;;5035395;28;20040;-60
2020/12/18 10:44:13;;;;;;;13.07;9.27;;;8.80;74.50;;;;;;5052210;28;20469;-61
2020/12/18 10:46:40;;;;;;;12.80;9.07;;;8.80;75.00;;;;;;5052614;28;20124;-60
2020/12/18 10:49:07;;;;;;;16.20;9.48;;;8.80;74.90;;;;;;5058295;28;20029;-60
2020/12/18 10:51:32;;;;;;;13.65;8.77;;;8.90;74.90;;;;;;5053296;28;20044;-59
2020/12/18 10:53:58;;;;;;;16.27;9.75;;;9.00;74.40;;;;;;5052682;28;20553;-62
2020/12/18 10:56:23;;;;;;;17.35;9.77;;;9.10;74.30;;;;;;5052528;28;20061;-60
2020/12/18 10:58:49;;;;;;;16.15;9.95;;;9.20;73.70;;;;;;5052521;28;20052;-61
2020/12/18 11:01:18;;;;;;;14.90;9.52;;;9.20;73.80;;;;;;5034827;28;20029;-60
2020/12/18 11:03:44;;;;;;;18.60;9.50;;;9.10;73.80;;;;;;5051413;28;20684;-60
2020/12/18 11:06:10;;;;;;;15.02;8.88;;;9.10;74.00;;;;;;5052154;28;20472;-57
2020/12/18 11:08:36;;;;;;;19.15;8.90;;;9.10;74.00;;;;;;5018548;28;20021;-58
2020/12/18 11:11:02;;;;;;;14.23;8.98;;;9.10;73.80;;;;;;5052716;28;20420;-60
2020/12/18 11:13:27;;;;;;;11.05;8.77;;;9.20;73.40;;;;;;5052052;28;20029;-59
2020/12/18 11:15:53;;;;;;;14.30;9.60;;;9.10;73.70;;;;;;5051981;28;20518;-60
2020/12/18 11:18:19;;;;;;;13.15;8.70;;;9.00;74.20;;;;;;5054444;28;20025;-61
2020/12/18 11:20:44;;;;;;;12.60;9.18;;;9.00;74.40;;;;;;5054455;28;20091;-60
2020/12/18 11:23:10;;;;;;;12.52;8.52;;;9.00;74.40;;;;;;5056277;28;20082;-60
2020/12/18 11:25:35;;;;;;;13.65;9.27;;;9.10;74.40;;;;;;5055378;28;20110;-62
2020/12/18 11:28:01;;;;;;;12.18;8.43;;;9.20;74.00;;;;;;5055844;28;20036;-59
2020/12/18 11:30:27;;;;;;;9.57;8.52;;;9.30;74.10;;;;;;5055848;28;20025;-61
2020/12/18 11:32:52;;;;;;;12.25;9.10;;;9.40;73.50;;;;;;5054011;28;20060;-58
2020/12/18 11:35:18;;;;;;;13.18;8.90;;;9.50;73.10;;;;;;5054547;28;20044;-60
2020/12/18 11:37:44;;;;;;;13.13;8.05;;;9.40;73.40;;;;;;5055685;28;20037;-61
2020/12/18 11:40:09;;;;;;;14.00;9.27;;;9.50;73.20;;;;;;5055215;28;20063;-60
2020/12/18 11:42:35;;;;;;;15.60;9.38;;;9.60;72.90;;;;;;5037480;28;20037;-58
2020/12/18 11:45:03;;;;;;;12.85;9.02;;;9.60;72.50;;;;;;5054859;28;20025;-61
2020/12/18 11:47:28;;;;;;;13.50;9.00;;;9.50;72.80;;;;;;5056508;28;20045;-56
2020/12/18 11:49:54;;;;;;;10.57;8.45;;;9.60;73.20;;;;;;5064336;28;20124;-60
2020/12/18 11:52:20;;;;;;;10.82;8.23;;;9.70;72.70;;;;;;5036779;28;20182;-61
2020/12/18 11:54:45;;;;;;;11.13;8.90;;;9.60;72.80;;;;;;5035474;28;20048;-56
2020/12/18 11:57:11;;;;;;;12.88;8.25;;;9.70;72.50;;;;;;5053596;28;20033;-59
2020/12/18 11:59:36;;;;;;;11.95;8.30;;;9.70;72.20;;;;;;5055597;28;20484;-61
2020/12/18 12:02:03;;;;;;;11.93;7.82;;;9.70;72.40;;;;;;5057914;28;20037;-61
2020/12/18 12:04:29;;;;;;;10.93;8.23;;;9.70;72.30;;;;;;5058273;28;20029;-61
2020/12/18 12:06:55;;;;;;;10.52;8.07;;;9.70;71.90;;;;;;5057378;28;20048;-60
2020/12/18 12:09:21;;;;;;;9.80;7.57;;;9.70;72.20;;;;;;5057032;28;20064;-60
2020/12/18 12:11:47;;;;;;;12.32;8.73;;;9.70;71.90;;;;;;5059539;28;20488;-61
2020/12/18 12:14:13;;;;;;;11.75;7.72;;;9.70;71.90;;;;;;5054249;28;20039;-58
2020/12/18 12:16:38;;;;;;;10.23;7.25;;;9.80;71.90;;;;;;5047541;28;20062;-62
2020/12/18 12:19:05;;;;;;;9.00;7.72;;;9.80;71.90;;;;;;5025527;28;20037;-59
2020/12/18 12:21:32;;;;;;;11.02;8.00;;;9.90;71.80;;;;;;5046462;28;20037;-60
2020/12/18 12:23:58;;;;;;;11.77;8.45;;;10.00;71.70;;;;;;5044879;28;20091;-60
2020/12/18 12:26:23;;;;;;;11.15;8.02;;;9.90;71.70;;;;;;5026379;28;20088;-62
2020/12/18 12:28:49;;;;;;;11.13;7.53;;;9.90;71.70;;;;;;5044386;28;20503;-60
2020/12/18 12:31:14;;;;;;;16.35;8.85;;;9.90;71.60;;;;;;5029673;28;20036;-60
2020/12/18 12:33:40;;;;;;;10.75;7.70;;;10.00;71.40;;;;;;5047405;28;20033;-58
2020/12/18 12:36:06;;;;;;;10.65;7.60;;;10.10;71.20;;;;;;5025367;28;20069;-58
2020/12/18 12:38:31;;;;;;;11.65;7.70;;;10.00;71.40;;;;;;5049212;28;20052;-60